Dan G — WDG7879 — position and weather

sailwx.info

Track history (hours):
 
Tides and Currents Weather Stations Pressure Air Temp Water Temp Dewpoint Dewpoint Depression Visibility Wind Speed Wind Dir Waves Ship Positions

Dan G

Owner: Weeks Marine, Inc., Cranford, NJ. More information available from US FCC via Universal Licensing System and Coast Guard Vessel Documentation Center.

Last reported at 2018-Jun-24 15:58 UTC. Time now 2018-Jun-24 16:20 UTC.
Position N 39°45' W 074°07'.

Length 13 m.

Type: Other ship. MMSI: 367571760.

Date/timePositionNaut miles runAvg speedWind from/ knotsBaromVisibWave heightAir tempDewpointWater temp
2018-Jun-24 15:58N 39°45' W 074°07'0 0.0
2018-Jun-24 15:28N 39°45' W 074°07'0 0.0
2018-Jun-24 14:58N 39°45' W 074°07'0 0.0
2018-Jun-24 14:22N 39°45' W 074°07'0 0.0
2018-Jun-24 13:58N 39°45' W 074°07'0 0.0
2018-Jun-24 13:28N 39°45' W 074°07'0 0.0
2018-Jun-24 12:46N 39°45' W 074°07'0 0.0
2018-Jun-24 12:29N 39°45' W 074°07'1 0.0
2018-Jun-23 11:50N 39°46' W 074°07'1 0.4
2018-Jun-23 10:28N 39°45' W 074°07'1 0.0
2018-Jun-22 19:33N 39°46' W 074°07'0 3.0
2018-Jun-22 19:30N 39°46' W 074°07'0 0.9
2018-Jun-22 18:56N 39°45' W 074°07'0 0.0
2018-Jun-22 18:26N 39°45' W 074°07'0 0.0
2018-Jun-22 17:44N 39°45' W 074°07'0 0.0
2018-Jun-22 16:56N 39°45' W 074°07'0 0.0
2018-Jun-22 11:53N 39°45' W 074°07'0 0.0
2018-Jun-22 10:25N 39°45' W 074°07'0 0.0
2018-Jun-21 20:08N 39°45' W 074°07'0 0.1
2018-Jun-21 19:56N 39°45' W 074°07'0 0.0
2018-Jun-21 19:26N 39°45' W 074°07'0 0.0
2018-Jun-21 18:56N 39°45' W 074°07'0 1.1
2018-Jun-21 18:30N 39°46' W 074°07'0 0.8
2018-Jun-21 18:00N 39°45' W 074°07'1 0.9
2018-Jun-21 17:24N 39°46' W 074°07'1 1.2
2018-Jun-21 16:57N 39°45' W 074°07'0 0.0
2018-Jun-21 16:15N 39°45' W 074°07'0 0.0
2018-Jun-21 15:39N 39°45' W 074°07'0 0.0
2018-Jun-21 15:15N 39°45' W 074°07'0 0.0
2018-Jun-21 14:57N 39°45' W 074°07'0 0.0
2018-Jun-21 14:28N 39°45' W 074°07'2 3.8
2018-Jun-21 13:59N 39°44' W 074°05'4 6.7
2018-Jun-21 13:27N 39°41' W 074°07'0 0.6
2018-Jun-21 12:59N 39°41' W 074°07'0 0.2
2018-Jun-21 12:27N 39°41' W 074°07'0 1.0
2018-Jun-21 12:00N 39°41' W 074°06'5 9.6
2018-Jun-21 11:29N 39°46' W 074°07'0 0.0
2018-Jun-21 10:59N 39°46' W 074°07'1 0.6
2018-Jun-21 10:03N 39°45' W 074°07'0 0.6
2018-Jun-21 10:00N 39°45' W 074°07'1 0.1
2018-Jun-20 20:33N 39°46' W 074°05'117.2
2018-Jun-20 20:30N 39°46' W 074°05'1 0.3
2018-Jun-20 16:31N 39°47' W 074°04'0 5.0
2018-Jun-20 16:29N 39°47' W 074°04'2 4.5
2018-Jun-20 16:00N 39°45' W 074°05'2 4.4
2018-Jun-20 15:27N 39°43' W 074°06'1 2.1
2018-Jun-20 14:58N 39°44' W 074°06'2 4.2
2018-Jun-20 14:28N 39°46' W 074°07'511.2
2018-Jun-20 13:59N 39°40' W 074°08'3 1.4
2018-Jun-20 11:44N 39°38' W 074°10'2 7.5
2018-Jun-20 11:29N 39°39' W 074°09'4 7.5
2018-Jun-20 10:59N 39°42' W 074°06'3 5.2
2018-Jun-20 10:30N 39°45' W 074°05'2 3.1
2018-Jun-20 09:58N 39°45' W 074°07'0 0.0
2018-Jun-19 20:17N 39°46' W 074°07'1 2.1
2018-Jun-19 20:00N 39°45' W 074°07'0 0.0
2018-Jun-19 19:30N 39°45' W 074°07'0 0.0
2018-Jun-19 18:54N 39°45' W 074°07'0 0.0
2018-Jun-19 18:24N 39°45' W 074°07'0 0.0
2018-Jun-19 18:00N 39°45' W 074°07'1 1.6
2018-Jun-19 17:28N 39°46' W 074°07'0 0.0
2018-Jun-19 17:00N 39°46' W 074°07'0 0.0
2018-Jun-19 16:29N 39°46' W 074°07'0 0.1
2018-Jun-19 15:57N 39°46' W 074°07'0 0.0
2018-Jun-19 15:28N 39°46' W 074°07'0 0.1
2018-Jun-19 14:57N 39°46' W 074°07'1 2.6
2018-Jun-19 14:31N 39°46' W 074°06'2 3.5
2018-Jun-19 13:57N 39°44' W 074°06'2 4.9
2018-Jun-19 13:30N 39°42' W 074°07'2 5.2
2018-Jun-19 13:01N 39°40' W 074°09'1 0.8
2018-Jun-19 11:06N 39°38' W 074°10'1 5.9
2018-Jun-19 10:55N 39°39' W 074°09'3 7.6
2018-Jun-19 10:30N 39°42' W 074°07'2 4.4
2018-Jun-19 09:57N 39°44' W 074°05'2 4.7
2018-Jun-19 09:29N 39°46' W 074°07'0 0.0
2018-Jun-18 20:34N 39°45' W 074°07'0 2.1
2018-Jun-18 20:30N 39°45' W 074°07'1 1.9
2018-Jun-18 19:57N 39°46' W 074°06'4 8.0
2018-Jun-18 19:29N 39°42' W 074°05'1 2.3
2018-Jun-18 18:54N 39°41' W 074°06'511.5
2018-Jun-18 18:28N 39°46' W 074°07'510.8
2018-Jun-18 18:00N 39°41' W 074°06'3 1.4
2018-Jun-18 15:58N 39°44' W 074°05'511.1
2018-Jun-18 15:30N 39°39' W 074°09'0 0.2
2018-Jun-18 14:57N 39°39' W 074°09'0 0.2
2018-Jun-18 14:21N 39°39' W 074°09'0 0.3
2018-Jun-18 13:58N 39°39' W 074°09'2 1.3
2018-Jun-18 12:13N 39°37' W 074°10'0 1.7
2018-Jun-18 11:58N 39°38' W 074°10'3 5.9
2018-Jun-18 11:25N 39°41' W 074°08'4 9.4
2018-Jun-18 11:00N 39°44' W 074°06'2 3.1
2018-Jun-18 10:24N 39°46' W 074°06'0 0.0
2018-Jun-17 22:47N 39°46' W 074°06'311.1
2018-Jun-17 22:30N 39°43' W 074°04'3 5.5
2018-Jun-17 22:00N 39°41' W 074°03'2 3.7
2018-Jun-17 21:28N 39°41' W 074°06'0 0.2
2018-Jun-17 20:58N 39°41' W 074°06'0 0.9
2018-Jun-17 20:30N 39°41' W 074°06'0 0.7
2018-Jun-17 19:54N 39°41' W 074°06'0 0.1
2018-Jun-17 19:30N 39°41' W 074°06'0 0.6
2018-Jun-17 18:59N 39°40' W 074°06'1 1.1
2018-Jun-17 18:29N 39°41' W 074°06'0 0.5
2018-Jun-17 18:00N 39°41' W 074°06'0 0.6
2018-Jun-17 17:31N 39°41' W 074°06'0 0.2
2018-Jun-17 16:55N 39°41' W 074°06'0 0.2
2018-Jun-17 16:27N 39°41' W 074°06'1 1.6
2018-Jun-17 16:00N 39°41' W 074°05'0 0.0
2018-Jun-17 15:26N 39°41' W 074°05'1 1.1
2018-Jun-17 14:57N 39°41' W 074°05'1 1.7
2018-Jun-17 14:30N 39°41' W 074°06'0 0.6
2018-Jun-17 14:00N 39°41' W 074°07'0 0.3
2018-Jun-17 13:30N 39°41' W 074°07'1 1.0
2018-Jun-17 13:00N 39°41' W 074°06'0 0.5
2018-Jun-17 12:26N 39°41' W 074°06'2 1.7
2018-Jun-17 11:26N 39°42' W 074°05'1 1.9
2018-Jun-17 11:00N 39°43' W 074°05'1 1.8
2018-Jun-17 10:29N 39°44' W 074°05'2 0.2
2018-Jun-16 22:29N 39°46' W 074°06'510.4
2018-Jun-16 22:00N 39°41' W 074°06'0 0.8
2018-Jun-16 21:29N 39°41' W 074°07'0 0.1
2018-Jun-16 21:00N 39°41' W 074°07'0 0.8
2018-Jun-16 20:30N 39°41' W 074°06'0 0.8
2018-Jun-16 20:00N 39°41' W 074°06'1 1.1
2018-Jun-16 19:29N 39°41' W 074°05'1 1.1
2018-Jun-16 19:00N 39°40' W 074°05'1 2.4
2018-Jun-16 18:30N 39°41' W 074°03'611.6
2018-Jun-16 18:01N 39°46' W 074°07'0 0.7
2018-Jun-16 17:23N 39°45' W 074°07'1 2.2
2018-Jun-16 16:57N 39°46' W 074°06'510.8
2018-Jun-16 16:28N 39°41' W 074°05'0 0.6
2018-Jun-16 15:58N 39°41' W 074°05'4 7.2
2018-Jun-16 15:29N 39°44' W 074°05'2 3.9
2018-Jun-16 14:58N 39°46' W 074°07'511.2
2018-Jun-16 14:29N 39°41' W 074°03'611.5
2018-Jun-16 14:00N 39°46' W 074°06'1 1.0
2018-Jun-16 13:28N 39°46' W 074°07'612.4
2018-Jun-16 13:00N 39°41' W 074°03'0 0.5
2018-Jun-16 12:18N 39°41' W 074°04'2 5.6
2018-Jun-16 11:56N 39°41' W 074°06'0 0.7
2018-Jun-16 11:24N 39°41' W 074°07'0 1.0
2018-Jun-16 11:00N 39°41' W 074°06'4 8.3
2018-Jun-16 10:27N 39°45' W 074°05'0 0.0
2018-Jun-15 21:16N 39°45' W 074°05'414.6
2018-Jun-15 20:58N 39°41' W 074°04'4 7.8
2018-Jun-15 20:28N 39°40' W 074°08'1 2.0
2018-Jun-15 20:00N 39°39' W 074°09'0 0.4
2018-Jun-15 19:28N 39°39' W 074°09'0 0.4
2018-Jun-15 18:54N 39°39' W 074°09'0 0.2
2018-Jun-15 18:23N 39°39' W 074°09'1 1.8
2018-Jun-15 17:49N 39°38' W 074°10'1 0.9
2018-Jun-15 17:08N 39°38' W 074°10'2 7.5
2018-Jun-15 16:56N 39°39' W 074°09'610.5
2018-Jun-15 16:23N 39°44' W 074°04'3 6.7
2018-Jun-15 15:59N 39°46' W 074°07'5 9.3
2018-Jun-15 15:26N 39°41' W 074°08'  
Track history (hours):
 
Tides and Currents Weather Stations Pressure Air Temp Water Temp Dewpoint Dewpoint Depression Visibility Wind Speed Wind Dir Waves Ship Positions

Dan G

Owner: Weeks Marine, Inc., Cranford, NJ. More information available from US FCC via Universal Licensing System and Coast Guard Vessel Documentation Center.

Last reported at 2018-Jun-24 15:58 UTC. Time now 2018-Jun-24 16:20 UTC.
Position N 39°45' W 074°07'.

Length 13 m.

Type: Other ship. MMSI: 367571760.

Date/timePositionNaut miles runAvg speedWind from/ knotsBaromVisibWave heightAir tempDewpointWater temp
2018-Jun-24 15:58N 39°45' W 074°07'0 0.0
2018-Jun-24 15:28N 39°45' W 074°07'0 0.0
2018-Jun-24 14:58N 39°45' W 074°07'0 0.0
2018-Jun-24 14:22N 39°45' W 074°07'0 0.0
2018-Jun-24 13:58N 39°45' W 074°07'0 0.0
2018-Jun-24 13:28N 39°45' W 074°07'0 0.0
2018-Jun-24 12:46N 39°45' W 074°07'0 0.0
2018-Jun-24 12:29N 39°45' W 074°07'1 0.0
2018-Jun-23 11:50N 39°46' W 074°07'1 0.4
2018-Jun-23 10:28N 39°45' W 074°07'1 0.0
2018-Jun-22 19:33N 39°46' W 074°07'0 3.0
2018-Jun-22 19:30N 39°46' W 074°07'0 0.9
2018-Jun-22 18:56N 39°45' W 074°07'0 0.0
2018-Jun-22 18:26N 39°45' W 074°07'0 0.0
2018-Jun-22 17:44N 39°45' W 074°07'0 0.0
2018-Jun-22 16:56N 39°45' W 074°07'0 0.0
2018-Jun-22 11:53N 39°45' W 074°07'0 0.0
2018-Jun-22 10:25N 39°45' W 074°07'0 0.0
2018-Jun-21 20:08N 39°45' W 074°07'0 0.1
2018-Jun-21 19:56N 39°45' W 074°07'0 0.0
2018-Jun-21 19:26N 39°45' W 074°07'0 0.0
2018-Jun-21 18:56N 39°45' W 074°07'0 1.1
2018-Jun-21 18:30N 39°46' W 074°07'0 0.8
2018-Jun-21 18:00N 39°45' W 074°07'1 0.9
2018-Jun-21 17:24N 39°46' W 074°07'1 1.2
2018-Jun-21 16:57N 39°45' W 074°07'0 0.0
2018-Jun-21 16:15N 39°45' W 074°07'0 0.0
2018-Jun-21 15:39N 39°45' W 074°07'0 0.0
2018-Jun-21 15:15N 39°45' W 074°07'0 0.0
2018-Jun-21 14:57N 39°45' W 074°07'0 0.0
2018-Jun-21 14:28N 39°45' W 074°07'2 3.8
2018-Jun-21 13:59N 39°44' W 074°05'4 6.7
2018-Jun-21 13:27N 39°41' W 074°07'0 0.6
2018-Jun-21 12:59N 39°41' W 074°07'0 0.2
2018-Jun-21 12:27N 39°41' W 074°07'0 1.0
2018-Jun-21 12:00N 39°41' W 074°06'5 9.6
2018-Jun-21 11:29N 39°46' W 074°07'0 0.0
2018-Jun-21 10:59N 39°46' W 074°07'1 0.6
2018-Jun-21 10:03N 39°45' W 074°07'0 0.6
2018-Jun-21 10:00N 39°45' W 074°07'1 0.1
2018-Jun-20 20:33N 39°46' W 074°05'117.2
2018-Jun-20 20:30N 39°46' W 074°05'1 0.3
2018-Jun-20 16:31N 39°47' W 074°04'0 5.0
2018-Jun-20 16:29N 39°47' W 074°04'2 4.5
2018-Jun-20 16:00N 39°45' W 074°05'2 4.4
2018-Jun-20 15:27N 39°43' W 074°06'1 2.1
2018-Jun-20 14:58N 39°44' W 074°06'2 4.2
2018-Jun-20 14:28N 39°46' W 074°07'511.2
2018-Jun-20 13:59N 39°40' W 074°08'3 1.4
2018-Jun-20 11:44N 39°38' W 074°10'2 7.5
2018-Jun-20 11:29N 39°39' W 074°09'4 7.5
2018-Jun-20 10:59N 39°42' W 074°06'3 5.2
2018-Jun-20 10:30N 39°45' W 074°05'2 3.1
2018-Jun-20 09:58N 39°45' W 074°07'0 0.0
2018-Jun-19 20:17N 39°46' W 074°07'1 2.1
2018-Jun-19 20:00N 39°45' W 074°07'0 0.0
2018-Jun-19 19:30N 39°45' W 074°07'0 0.0
2018-Jun-19 18:54N 39°45' W 074°07'0 0.0
2018-Jun-19 18:24N 39°45' W 074°07'0 0.0
2018-Jun-19 18:00N 39°45' W 074°07'1 1.6
2018-Jun-19 17:28N 39°46' W 074°07'0 0.0
2018-Jun-19 17:00N 39°46' W 074°07'0 0.0
2018-Jun-19 16:29N 39°46' W 074°07'0 0.1
2018-Jun-19 15:57N 39°46' W 074°07'0 0.0
2018-Jun-19 15:28N 39°46' W 074°07'0 0.1
2018-Jun-19 14:57N 39°46' W 074°07'1 2.6
2018-Jun-19 14:31N 39°46' W 074°06'2 3.5
2018-Jun-19 13:57N 39°44' W 074°06'2 4.9
2018-Jun-19 13:30N 39°42' W 074°07'2 5.2
2018-Jun-19 13:01N 39°40' W 074°09'1 0.8
2018-Jun-19 11:06N 39°38' W 074°10'1 5.9
2018-Jun-19 10:55N 39°39' W 074°09'3 7.6
2018-Jun-19 10:30N 39°42' W 074°07'2 4.4
2018-Jun-19 09:57N 39°44' W 074°05'2 4.7
2018-Jun-19 09:29N 39°46' W 074°07'0 0.0
2018-Jun-18 20:34N 39°45' W 074°07'0 2.1
2018-Jun-18 20:30N 39°45' W 074°07'1 1.9
2018-Jun-18 19:57N 39°46' W 074°06'4 8.0
2018-Jun-18 19:29N 39°42' W 074°05'1 2.3
2018-Jun-18 18:54N 39°41' W 074°06'511.5
2018-Jun-18 18:28N 39°46' W 074°07'510.8
2018-Jun-18 18:00N 39°41' W 074°06'3 1.4
2018-Jun-18 15:58N 39°44' W 074°05'511.1
2018-Jun-18 15:30N 39°39' W 074°09'0 0.2
2018-Jun-18 14:57N 39°39' W 074°09'0 0.2
2018-Jun-18 14:21N 39°39' W 074°09'0 0.3
2018-Jun-18 13:58N 39°39' W 074°09'2 1.3
2018-Jun-18 12:13N 39°37' W 074°10'0 1.7
2018-Jun-18 11:58N 39°38' W 074°10'3 5.9
2018-Jun-18 11:25N 39°41' W 074°08'4 9.4
2018-Jun-18 11:00N 39°44' W 074°06'2 3.1
2018-Jun-18 10:24N 39°46' W 074°06'0 0.0
2018-Jun-17 22:47N 39°46' W 074°06'311.1
2018-Jun-17 22:30N 39°43' W 074°04'3 5.5
2018-Jun-17 22:00N 39°41' W 074°03'2 3.7
2018-Jun-17 21:28N 39°41' W 074°06'0 0.2
2018-Jun-17 20:58N 39°41' W 074°06'0 0.9
2018-Jun-17 20:30N 39°41' W 074°06'0 0.7
2018-Jun-17 19:54N 39°41' W 074°06'0 0.1
2018-Jun-17 19:30N 39°41' W 074°06'0 0.6
2018-Jun-17 18:59N 39°40' W 074°06'1 1.1
2018-Jun-17 18:29N 39°41' W 074°06'0 0.5
2018-Jun-17 18:00N 39°41' W 074°06'0 0.6
2018-Jun-17 17:31N 39°41' W 074°06'0 0.2
2018-Jun-17 16:55N 39°41' W 074°06'0 0.2
2018-Jun-17 16:27N 39°41' W 074°06'1 1.6
2018-Jun-17 16:00N 39°41' W 074°05'0 0.0
2018-Jun-17 15:26N 39°41' W 074°05'1 1.1
2018-Jun-17 14:57N 39°41' W 074°05'1 1.7
2018-Jun-17 14:30N 39°41' W 074°06'0 0.6
2018-Jun-17 14:00N 39°41' W 074°07'0 0.3
2018-Jun-17 13:30N 39°41' W 074°07'1 1.0
2018-Jun-17 13:00N 39°41' W 074°06'0 0.5
2018-Jun-17 12:26N 39°41' W 074°06'2 1.7
2018-Jun-17 11:26N 39°42' W 074°05'1 1.9
2018-Jun-17 11:00N 39°43' W 074°05'1 1.8
2018-Jun-17 10:29N 39°44' W 074°05'2 0.2
2018-Jun-16 22:29N 39°46' W 074°06'510.4
2018-Jun-16 22:00N 39°41' W 074°06'0 0.8
2018-Jun-16 21:29N 39°41' W 074°07'0 0.1
2018-Jun-16 21:00N 39°41' W 074°07'0 0.8
2018-Jun-16 20:30N 39°41' W 074°06'0 0.8
2018-Jun-16 20:00N 39°41' W 074°06'1 1.1
2018-Jun-16 19:29N 39°41' W 074°05'1 1.1
2018-Jun-16 19:00N 39°40' W 074°05'1 2.4
2018-Jun-16 18:30N 39°41' W 074°03'611.6
2018-Jun-16 18:01N 39°46' W 074°07'0 0.7
2018-Jun-16 17:23N 39°45' W 074°07'1 2.2
2018-Jun-16 16:57N 39°46' W 074°06'510.8
2018-Jun-16 16:28N 39°41' W 074°05'0 0.6
2018-Jun-16 15:58N 39°41' W 074°05'4 7.2
2018-Jun-16 15:29N 39°44' W 074°05'2 3.9
2018-Jun-16 14:58N 39°46' W 074°07'511.2
2018-Jun-16 14:29N 39°41' W 074°03'611.5
2018-Jun-16 14:00N 39°46' W 074°06'1 1.0
2018-Jun-16 13:28N 39°46' W 074°07'612.4
2018-Jun-16 13:00N 39°41' W 074°03'0 0.5
2018-Jun-16 12:18N 39°41' W 074°04'2 5.6
2018-Jun-16 11:56N 39°41' W 074°06'0 0.7
2018-Jun-16 11:24N 39°41' W 074°07'0 1.0
2018-Jun-16 11:00N 39°41' W 074°06'4 8.3
2018-Jun-16 10:27N 39°45' W 074°05'0 0.0
2018-Jun-15 21:16N 39°45' W 074°05'414.6
2018-Jun-15 20:58N 39°41' W 074°04'4 7.8
2018-Jun-15 20:28N 39°40' W 074°08'1 2.0
2018-Jun-15 20:00N 39°39' W 074°09'0 0.4
2018-Jun-15 19:28N 39°39' W 074°09'0 0.4
2018-Jun-15 18:54N 39°39' W 074°09'0 0.2
2018-Jun-15 18:23N 39°39' W 074°09'1 1.8
2018-Jun-15 17:49N 39°38' W 074°10'1 0.9
2018-Jun-15 17:08N 39°38' W 074°10'2 7.5
2018-Jun-15 16:56N 39°39' W 074°09'610.5
2018-Jun-15 16:23N 39°44' W 074°04'3 6.7
2018-Jun-15 15:59N 39°46' W 074°07'5 9.3
2018-Jun-15 15:26N 39°41' W 074°08'  

Dump ship's entire track history